Time;durP1;ratioP1;P1;durP2;ratioP2;P2;SDS_P1;SDS_P2;PMS_P1;PMS_P2;Temp;Humidity;BMP_temperature;BMP_pressure;BME280_temperature;BME280_humidity;BME280_pressure;Samples;Min_cycle;Max_cycle;Signal;HPM_P1;HPM_P2
2021/10/09 00:02:08;;;;;;;1.93;1.73;;;;;;;9.54;100.00;95446.84;5051254;27;20436;-76
2021/10/09 00:04:35;;;;;;;2.53;2.20;;;;;;;9.59;100.00;95443.88;5086432;28;20445;-76
2021/10/09 00:07:02;;;;;;;1.60;1.47;;;;;;;9.62;100.00;95441.03;5086326;28;20855;-76
2021/10/09 00:09:29;;;;;;;2.00;1.90;;;;;;;9.65;100.00;95445.22;5086326;28;20524;-77
2021/10/09 00:11:57;;;;;;;2.60;1.83;;;;;;;9.69;99.94;95447.50;5084336;28;20487;-76
2021/10/09 00:14:24;;;;;;;2.07;1.87;;;;;;;9.68;100.00;95448.44;5086477;28;20441;-75
2021/10/09 00:16:52;;;;;;;2.00;1.57;;;;;;;9.68;100.00;95443.22;5086116;28;20811;-76
2021/10/09 00:19:19;;;;;;;2.43;1.80;;;;;;;9.71;99.84;95437.75;5138535;27;20424;-76
2021/10/09 00:21:46;;;;;;;2.10;1.90;;;;;;;9.73;98.60;95443.69;5086330;27;20527;-76
2021/10/09 00:24:14;;;;;;;2.43;2.23;;;;;;;9.76;99.20;95446.09;5085926;28;20812;-76
2021/10/09 00:26:41;;;;;;;3.80;1.90;;;;;;;9.70;99.19;95430.00;5086103;28;20481;-76
2021/10/09 00:29:10;;;;;;;2.60;2.40;;;;;;;9.66;98.76;95437.25;5085852;28;20458;-76
2021/10/09 00:31:38;;;;;;;2.70;1.97;;;;;;;9.59;97.55;95438.63;5086104;28;20447;-76
2021/10/09 00:34:06;;;;;;;2.70;2.00;;;;;;;9.53;97.95;95433.81;5067232;28;20437;-76
2021/10/09 00:36:33;;;;;;;2.80;1.53;;;;;;;9.47;98.16;95434.25;5083915;27;20469;-76
2021/10/09 00:39:00;;;;;;;5.93;2.00;;;;;;;9.45;97.69;95430.91;5072440;28;20441;-76
2021/10/09 00:41:27;;;;;;;2.33;1.60;;;;;;;9.43;97.62;95438.06;5072293;28;20448;-76
2021/10/09 00:43:54;;;;;;;3.63;1.77;;;;;;;9.39;97.55;95426.13;5072372;28;20447;-76
2021/10/09 00:46:23;;;;;;;2.10;1.83;;;;;;;9.41;98.24;95430.31;5072367;28;20485;-76
2021/10/09 00:48:50;;;;;;;1.97;1.70;;;;;;;9.42;98.12;95431.97;5072392;28;20442;-76
2021/10/09 00:51:17;;;;;;;1.63;1.40;;;;;;;9.44;98.35;95429.25;5072044;28;20459;-76
2021/10/09 00:53:47;;;;;;;2.23;1.53;;;;;;;9.45;98.55;95428.28;5072305;28;20455;-76
2021/10/09 00:56:18;;;;;;;1.43;1.30;;;;;;;9.48;98.22;95417.59;5072237;28;20487;-76
2021/10/09 00:58:47;;;;;;;1.40;1.30;;;;;;;9.51;97.64;95420.00;5072173;28;20492;-76
2021/10/09 01:01:14;;;;;;;1.60;1.50;;;;;;;9.55;97.40;95418.84;5071942;27;20456;-76
2021/10/09 01:03:44;;;;;;;3.03;1.80;;;;;;;9.56;98.42;95426.59;5071884;28;20928;-76
2021/10/09 01:06:11;;;;;;;7.03;2.87;;;;;;;9.57;97.76;95411.72;5071826;27;20484;-76
2021/10/09 01:08:37;;;;;;;2.90;2.60;;;;;;;9.57;98.46;95419.56;5071863;28;20951;-76
2021/10/09 01:11:04;;;;;;;6.63;2.70;;;;;;;9.61;98.95;95419.25;5071952;28;20955;-76
2021/10/09 01:13:31;;;;;;;2.77;2.17;;;;;;;9.65;98.71;95422.47;5071963;28;20821;-76
2021/10/09 01:15:58;;;;;;;2.47;2.13;;;;;;;9.68;98.09;95411.75;5071617;28;20450;-77
2021/10/09 01:18:25;;;;;;;5.10;2.03;;;;;;;9.73;98.59;95419.28;5071635;28;20459;-76
2021/10/09 01:20:55;;;;;;;3.20;2.00;;;;;;;9.76;98.11;95412.03;5071650;28;20946;-76
2021/10/09 01:23:24;;;;;;;1.80;1.63;;;;;;;9.74;98.39;95416.53;5071585;28;20449;-76
2021/10/09 01:25:51;;;;;;;2.90;2.10;;;;;;;9.75;97.44;95410.34;5036960;28;20488;-76
2021/10/09 01:28:18;;;;;;;1.83;1.50;;;;;;;9.76;97.51;95414.66;5071509;27;20444;-76
2021/10/09 01:30:46;;;;;;;1.50;1.40;;;;;;;9.78;98.21;95407.50;5071715;28;20482;-76
2021/10/09 01:33:13;;;;;;;5.07;2.00;;;;;;;9.78;98.15;95412.75;5071492;27;20441;-76
2021/10/09 01:35:49;;;;;;;3.17;1.53;;;;;;;9.81;97.45;95411.69;5071429;27;20820;-76
2021/10/09 01:38:17;;;;;;;3.30;1.93;;;;;;;9.79;97.92;95409.19;5071294;28;20487;-76
2021/10/09 01:40:44;;;;;;;3.00;1.80;;;;;;;9.78;97.85;95409.28;5071534;28;20811;-76
2021/10/09 01:43:11;;;;;;;2.20;2.00;;;;;;;9.78;97.83;95407.50;5071335;28;20453;-76
2021/10/09 01:45:39;;;;;;;2.50;2.30;;;;;;;9.79;97.33;95397.84;5071113;28;20449;-76
2021/10/09 01:48:06;;;;;;;2.60;2.40;;;;;;;9.78;97.07;95399.66;5071253;27;20446;-76
2021/10/09 01:50:33;;;;;;;6.07;3.20;;;;;;;9.81;97.96;95399.41;5070446;28;20441;-76
2021/10/09 01:53:01;;;;;;;3.40;2.80;;;;;;;9.82;97.74;95398.47;5071003;28;20805;-76
2021/10/09 01:55:29;;;;;;;9.93;3.77;;;;;;;9.79;97.71;95398.69;5071455;28;20449;-76
2021/10/09 01:57:56;;;;;;;9.50;3.80;;;;;;;9.74;97.74;95403.44;5122166;27;20454;-76
2021/10/09 02:00:23;;;;;;;2.90;2.70;;;;;;;9.73;97.46;95396.53;5070997;28;20445;-76
2021/10/09 02:02:51;;;;;;;6.60;3.40;;;;;;;9.71;98.14;95401.06;5071429;27;20449;-76
2021/10/09 02:05:18;;;;;;;5.97;2.63;;;;;;;9.71;97.93;95400.22;5070864;28;20937;-76
2021/10/09 02:07:45;;;;;;;4.53;2.80;;;;;;;9.68;97.62;95392.56;5071035;27;20491;-76
2021/10/09 02:10:15;;;;;;;3.80;2.67;;;;;;;9.65;97.77;95398.88;5070719;28;20437;-76
2021/10/09 02:12:43;;;;;;;3.20;2.70;;;;;;;9.61;98.09;95389.59;5070807;28;20462;-76
2021/10/09 02:15:13;;;;;;;5.10;4.17;;;;;;;9.58;98.00;95398.50;5070707;28;20987;-76
2021/10/09 02:18:07;;;;;;;3.80;3.50;;;;;;;9.56;98.97;95400.41;5070991;27;20932;-76
2021/10/09 02:26:04;;;;;;;2.90;2.43;;;;;;;8.95;99.35;95401.28;5070660;28;20479;-75
2021/10/09 02:28:32;;;;;;;3.23;2.90;;;;;;;9.08;99.49;95401.28;5070738;27;20452;-76
2021/10/09 02:30:59;;;;;;;5.90;2.67;;;;;;;9.17;100.00;95398.84;5070649;28;20452;-76
2021/10/09 02:33:26;;;;;;;2.80;2.57;;;;;;;9.18;99.87;95403.13;5070553;28;20449;-76
2021/10/09 02:35:53;;;;;;;3.00;2.70;;;;;;;9.02;100.00;95406.97;5070454;28;20473;-76
2021/10/09 02:38:20;;;;;;;2.73;1.70;;;;;;;9.04;100.00;95403.28;5070347;28;20445;-76
2021/10/09 02:40:48;;;;;;;4.40;1.90;;;;;;;9.06;99.28;95397.94;5070238;28;20824;-77
2021/10/09 02:43:16;;;;;;;1.87;1.60;;;;;;;9.09;99.18;95408.19;5070541;28;20446;-76
2021/10/09 02:45:44;;;;;;;1.80;1.65;;;;;;;9.16;99.48;95402.41;5035018;28;20434;-76
2021/10/09 02:48:15;;;;;;;1.50;1.40;;;;;;;9.05;98.81;95397.09;5051779;28;20441;-76
2021/10/09 02:50:42;;;;;;;1.60;1.50;;;;;;;8.99;98.36;95400.16;5070561;28;20449;-76
2021/10/09 02:53:09;;;;;;;2.43;1.37;;;;;;;9.08;97.92;95402.13;5070811;28;20433;-76
2021/10/09 02:55:37;;;;;;;10.43;1.70;;;;;;;8.97;98.26;95395.03;5070238;28;20449;-76
2021/10/09 02:58:04;;;;;;;1.50;1.40;;;;;;;9.08;98.34;95398.66;5071569;28;20452;-76
2021/10/09 03:00:32;;;;;;;1.30;1.20;;;;;;;9.09;98.36;95398.56;5070713;28;20448;-76
2021/10/09 03:03:00;;;;;;;1.40;1.30;;;;;;;9.09;97.84;95397.72;5070055;28;20449;-76
2021/10/09 03:05:27;;;;;;;1.70;1.20;;;;;;;9.16;98.28;95399.78;5069996;28;20857;-76
2021/10/09 03:07:54;;;;;;;3.73;1.40;;;;;;;9.12;97.49;95408.81;5069934;28;21011;-76
2021/10/09 03:10:23;;;;;;;2.03;1.73;;;;;;;9.12;97.57;95402.72;5070166;28;20452;-76
2021/10/09 03:12:50;;;;;;;3.63;1.63;;;;;;;9.09;97.15;95406.41;5069909;28;20449;-76
2021/10/09 03:15:17;;;;;;;1.63;1.53;;;;;;;9.12;97.91;95397.50;5070027;28;20528;-76
2021/10/09 03:17:44;;;;;;;1.73;1.30;;;;;;;9.16;97.75;95394.56;5069926;28;20441;-76
2021/10/09 03:20:13;;;;;;;2.23;2.03;;;;;;;9.17;98.38;95396.22;5069826;28;20448;-76
2021/10/09 03:22:41;;;;;;;1.80;1.70;;;;;;;9.18;98.58;95390.03;5069772;28;20445;-76
2021/10/09 03:25:09;;;;;;;1.77;1.67;;;;;;;9.26;99.41;95395.59;5069958;28;20490;-76
2021/10/09 03:27:36;;;;;;;4.27;2.07;;;;;;;9.26;98.66;95390.34;5069561;27;20488;-76
2021/10/09 03:30:05;;;;;;;3.03;2.00;;;;;;;9.23;98.58;95392.31;5069682;28;20800;-76
2021/10/09 03:32:32;;;;;;;1.80;1.70;;;;;;;9.08;98.77;95399.50;5069905;27;20448;-76
2021/10/09 03:34:59;;;;;;;1.90;1.80;;;;;;;9.19;98.94;95389.09;5069978;28;20453;-76
2021/10/09 03:37:27;;;;;;;4.53;4.10;;;;;;;9.24;99.18;95394.00;5069970;28;20488;-76
2021/10/09 03:39:56;;;;;;;5.33;4.60;;;;;;;9.22;99.79;95399.34;5069510;28;20447;-76
2021/10/09 03:42:27;;;;;;;4.80;4.30;;;;;;;9.27;99.88;95392.03;5069575;28;20443;-76
2021/10/09 03:44:57;;;;;;;5.17;4.00;;;;;;;9.20;99.89;95396.00;5069464;28;20455;-76
2021/10/09 03:47:30;;;;;;;7.13;3.97;;;;;;;9.19;98.98;95393.50;5069640;28;20507;-75
2021/10/09 03:49:59;;;;;;;4.47;3.53;;;;;;;9.21;99.29;95400.28;5069489;28;20528;-76
2021/10/09 03:52:38;;;;;;;2.63;2.43;;;;;;;9.19;99.71;95393.50;5035163;28;20824;-76
2021/10/09 03:55:08;;;;;;;4.70;3.60;;;;;;;9.18;99.16;95395.28;5069316;28;20526;-75
2021/10/09 03:57:36;;;;;;;3.70;3.40;;;;;;;9.18;98.45;95392.66;5034443;28;20452;-76
2021/10/09 04:00:04;;;;;;;2.97;2.57;;;;;;;9.12;99.44;95379.19;5069340;27;20966;-76
2021/10/09 04:02:31;;;;;;;3.30;2.47;;;;;;;9.19;98.78;95388.25;5068867;28;20450;-77
2021/10/09 04:04:58;;;;;;;5.60;2.70;;;;;;;9.19;98.90;95393.50;5034354;28;20442;-78
2021/10/09 04:07:25;;;;;;;4.90;3.20;;;;;;;9.20;99.11;95403.84;5069693;28;20491;-78
2021/10/09 04:09:53;;;;;;;2.70;2.50;;;;;;;9.22;99.10;95393.28;5069775;28;20449;-78
2021/10/09 04:12:20;;;;;;;3.63;2.80;;;;;;;9.23;100.00;95390.53;5070579;28;20449;-77
2021/10/09 04:14:47;;;;;;;3.57;3.27;;;;;;;9.25;99.91;95395.66;5072919;28;20532;-76
2021/10/09 04:17:14;;;;;;;3.37;3.07;;;;;;;9.27;99.75;95386.78;5073124;28;20523;-76
2021/10/09 04:19:41;;;;;;;3.73;2.10;;;;;;;9.28;99.57;95388.47;5054259;28;20440;-77
2021/10/09 04:22:08;;;;;;;3.03;2.80;;;;;;;9.28;99.76;95398.94;5072920;28;20437;-77
2021/10/09 04:24:35;;;;;;;6.60;2.50;;;;;;;9.27;99.54;95396.44;5072986;28;20768;-77
2021/10/09 04:27:04;;;;;;;2.37;2.20;;;;;;;9.31;99.60;95408.34;5072840;28;20484;-76
2021/10/09 04:29:31;;;;;;;2.57;2.20;;;;;;;9.26;99.24;95400.00;5037494;28;20928;-76
2021/10/09 04:31:58;;;;;;;2.70;1.80;;;;;;;9.23;99.42;95397.56;5072904;28;20452;-76
2021/10/09 04:34:25;;;;;;;3.00;1.90;;;;;;;9.23;99.49;95402.81;5072755;28;20447;-76
2021/10/09 04:36:52;;;;;;;2.83;2.27;;;;;;;9.21;98.85;95402.91;5072846;28;20819;-76
2021/10/09 04:39:20;;;;;;;2.30;2.10;;;;;;;9.28;99.34;95398.94;5072904;28;20441;-76
2021/10/09 04:41:47;;;;;;;1.77;1.67;;;;;;;9.32;98.57;95405.63;5072505;28;20916;-75
2021/10/09 04:44:16;;;;;;;1.80;1.70;;;;;;;9.38;99.00;95408.75;5072719;28;20446;-76
2021/10/09 04:46:43;;;;;;;1.60;1.50;;;;;;;9.40;99.28;95396.38;5053619;28;20848;-75
2021/10/09 04:49:10;;;;;;;2.17;2.07;;;;;;;9.41;98.27;95408.50;5073229;27;20445;-75
2021/10/09 04:51:37;;;;;;;1.67;1.57;;;;;;;9.43;98.47;95411.84;5072670;28;20441;-75
2021/10/09 04:54:04;;;;;;;1.67;1.50;;;;;;;9.44;99.35;95413.53;5072562;28;20947;-75
2021/10/09 04:56:31;;;;;;;1.60;1.50;;;;;;;9.45;99.75;95409.97;5072106;28;20797;-76
2021/10/09 04:58:58;;;;;;;1.63;1.53;;;;;;;9.50;100.00;95413.91;5072332;28;20437;-75
2021/10/09 05:01:26;;;;;;;2.80;2.60;;;;;;;9.56;100.00;95418.75;5072270;28;20460;-75
2021/10/09 05:03:53;;;;;;;2.50;2.30;;;;;;;9.56;99.83;95418.75;5072293;28;20452;-75
2021/10/09 05:06:20;;;;;;;9.73;5.07;;;;;;;9.54;99.85;95414.53;5037157;28;20441;-78
2021/10/09 05:08:47;;;;;;;14.67;8.50;;;;;;;9.50;99.45;95418.31;5072230;28;21062;-78
2021/10/09 05:11:14;;;;;;;5.13;4.10;;;;;;;9.46;100.00;95422.13;5072157;28;20445;-78
2021/10/09 05:13:41;;;;;;;6.20;3.80;;;;;;;9.31;100.00;95418.81;5072011;28;20450;-78
2021/10/09 05:16:08;;;;;;;4.88;3.80;;;;;;;9.44;100.00;95424.00;5070982;28;21571;-78
2021/10/09 05:18:36;;;;;;;3.50;3.20;;;;;;;9.50;100.00;95423.56;5071934;28;20209;-78
2021/10/09 05:21:03;;;;;;;4.43;4.03;;;;;;;9.46;100.00;95428.19;5071930;28;20452;-78
2021/10/09 05:23:31;;;;;;;5.83;4.40;;;;;;;9.44;100.00;95424.84;5071893;28;20452;-78
2021/10/09 05:25:59;;;;;;;5.63;4.37;;;;;;;9.47;99.69;95421.16;5072270;28;20445;-78
2021/10/09 05:28:30;;;;;;;6.47;5.37;;;;;;;9.46;99.18;95419.50;5072054;28;21018;-78
2021/10/09 05:30:58;;;;;;;9.77;5.00;;;;;;;9.49;99.06;95416.66;5072067;28;20514;-78
2021/10/09 05:33:36;;;;;;;7.10;4.57;;;;;;;9.43;99.37;95423.16;5072171;28;20905;-78
2021/10/09 05:36:04;;;;;;;6.13;3.93;;;;;;;9.46;98.70;95419.50;5071889;28;20473;-78
2021/10/09 05:38:32;;;;;;;5.50;4.13;;;;;;;9.46;99.35;95427.34;5071871;28;20442;-78
2021/10/09 05:40:58;;;;;;;6.67;3.47;;;;;;;9.49;97.63;95432.38;5071800;28;20448;-78
2021/10/09 05:43:26;;;;;;;4.80;3.47;;;;;;;9.45;97.73;95430.91;5072184;28;20434;-78
2021/10/09 05:45:53;;;;;;;3.43;2.50;;;;;;;9.45;97.89;95430.91;5088595;28;20505;-78
2021/10/09 05:48:20;;;;;;;5.97;2.70;;;;;;;9.49;97.48;95442.84;5071531;28;20999;-79
2021/10/09 05:50:52;;;;;;;3.17;2.67;;;;;;;9.48;97.54;95439.38;5071793;28;20456;-75
2021/10/09 05:53:41;;;;;;;2.90;2.63;;;;;;;9.51;96.11;95446.19;5071787;28;20451;-78
2021/10/09 05:56:12;;;;;;;4.07;3.40;;;;;;;9.49;97.03;95440.22;5072067;27;20460;-78
2021/10/09 05:58:47;;;;;;;7.37;4.50;;;;;;;9.52;96.45;95447.88;5121155;27;20452;-82
2021/10/09 06:47:51;;;;;;;2.30;2.10;;;;;;;8.89;96.26;95481.06;4969607;28;20474;-75
2021/10/09 06:50:34;;;;;;;3.00;1.90;;;;;;;8.95;97.53;95474.59;4969931;28;20450;-76
2021/10/09 07:01:18;;;;;;;3.43;2.37;;;;;;;8.38;100.00;95488.91;4950065;29;20441;-76
2021/10/09 07:03:45;;;;;;;1.90;1.70;;;;;;;8.27;100.00;95488.75;4950330;28;20526;-76
2021/10/09 07:06:15;;;;;;;2.10;2.00;;;;;;;8.19;100.00;95485.81;4984807;28;20441;-76
2021/10/09 07:08:42;;;;;;;1.40;1.30;;;;;;;8.18;100.00;95486.75;4950215;28;20491;-76
2021/10/09 07:11:09;;;;;;;3.00;2.23;;;;;;;8.16;100.00;95483.41;4950257;28;20447;-76
2021/10/09 07:13:37;;;;;;;2.30;1.53;;;;;;;8.26;100.00;95488.84;4977213;28;20446;-76
2021/10/09 07:16:05;;;;;;;1.50;1.40;;;;;;;8.03;100.00;95491.19;5027935;28;20809;-76
2021/10/09 07:18:32;;;;;;;1.73;1.63;;;;;;;8.01;100.00;95485.22;5027526;28;20958;-76
2021/10/09 07:20:59;;;;;;;3.37;1.60;;;;;;;8.07;100.00;95489.19;5027543;28;20442;-76
2021/10/09 07:23:26;;;;;;;2.03;1.83;;;;;;;8.00;100.00;95488.78;5063306;28;20589;-76
2021/10/09 07:25:53;;;;;;;4.50;1.90;;;;;;;8.06;100.00;95498.81;5066798;28;20442;-76
2021/10/09 07:28:20;;;;;;;1.40;1.30;;;;;;;7.91;100.00;95497.22;5069832;28;20481;-76
2021/10/09 07:30:48;;;;;;;2.00;1.90;;;;;;;7.95;100.00;95497.84;5069391;28;20449;-76
2021/10/09 07:33:15;;;;;;;1.80;1.70;;;;;;;8.02;100.00;95497.34;5069727;28;20524;-76
2021/10/09 07:35:42;;;;;;;5.50;1.90;;;;;;;7.93;100.00;95492.72;5069265;28;20487;-76
2021/10/09 07:38:11;;;;;;;2.70;2.30;;;;;;;8.09;100.00;95497.78;5069448;28;20812;-76
2021/10/09 07:40:38;;;;;;;1.57;1.47;;;;;;;8.25;100.00;95498.47;5069535;28;20532;-76
2021/10/09 07:43:04;;;;;;;7.80;4.00;;;;;;;8.20;100.00;95497.94;5069666;28;20445;-76
2021/10/09 07:45:32;;;;;;;4.47;4.17;;;;;;;8.02;100.00;95501.75;5069825;28;20933;-79
2021/10/09 07:48:00;;;;;;;3.77;2.77;;;;;;;8.10;100.00;95503.88;5070812;28;20489;-78
2021/10/09 07:50:27;;;;;;;2.80;2.50;;;;;;;8.08;100.00;95502.16;5073481;28;20913;-78
2021/10/09 07:52:54;;;;;;;4.90;3.63;;;;;;;7.96;100.00;95505.59;5073569;28;20452;-79
2021/10/09 07:55:20;;;;;;;3.50;3.03;;;;;;;7.94;100.00;95507.47;5073236;28;20437;-77
2021/10/09 07:57:47;;;;;;;3.13;2.77;;;;;;;7.88;100.00;95513.09;5073574;28;20537;-79
2021/10/09 08:00:15;;;;;;;2.43;2.23;;;;;;;8.03;100.00;95512.09;5073220;28;20933;-75
2021/10/09 08:02:47;;;;;;;2.57;2.37;;;;;;;7.93;100.00;95511.03;5073207;28;20788;-80
2021/10/09 08:05:16;;;;;;;2.67;2.47;;;;;;;8.05;100.00;95514.59;5073279;28;20452;-76
2021/10/09 08:07:43;;;;;;;3.93;3.10;;;;;;;8.21;100.00;95506.63;5073059;28;20576;-75
2021/10/09 08:10:11;;;;;;;2.60;2.37;;;;;;;8.21;100.00;95509.22;5073530;28;20805;-80
2021/10/09 08:12:38;;;;;;;3.63;3.30;;;;;;;8.24;100.00;95516.88;5073461;28;20900;-77
2021/10/09 08:15:06;;;;;;;3.10;2.10;;;;;;;8.27;100.00;95514.88;5085086;27;20441;-76
2021/10/09 08:17:33;;;;;;;2.40;2.10;;;;;;;8.30;100.00;95513.84;5080320;27;20923;-76
2021/10/09 08:20:00;;;;;;;6.40;4.70;;;;;;;8.41;100.00;95516.63;5179061;27;20443;-77
2021/10/09 08:22:30;;;;;;;8.47;4.70;;;;;;;8.29;100.00;95514.78;5178451;27;20535;-76
2021/10/09 08:25:08;;;;;;;7.47;3.47;;;;;;;8.46;100.00;95525.00;5178537;27;20445;-77
2021/10/09 08:36:14;;;;;;;2.60;2.40;;;;;;;8.52;100.00;95524.59;5093414;28;20468;-77
2021/10/09 08:38:53;;;;;;;3.40;3.10;;;;;;;8.65;100.00;95528.06;5093537;28;20534;-77
2021/10/09 08:41:20;;;;;;;9.40;5.57;;;;;;;8.48;100.00;95527.53;5093590;28;20539;-77
2021/10/09 08:43:50;;;;;;;3.70;3.23;;;;;;;8.54;100.00;95529.72;5093124;28;20539;-77
2021/10/09 08:46:18;;;;;;;7.47;4.43;;;;;;;8.58;100.00;95534.66;5093544;28;20940;-77
2021/10/09 08:48:47;;;;;;;3.97;2.90;;;;;;;8.41;100.00;95526.25;5043718;28;20488;-77
2021/10/09 08:51:19;;;;;;;2.90;2.70;;;;;;;8.57;100.00;95527.75;5093380;28;20450;-77
2021/10/09 08:53:47;;;;;;;2.80;2.47;;;;;;;8.62;100.00;95523.03;5092682;28;20437;-77
2021/10/09 08:56:29;;;;;;;4.17;2.60;;;;;;;8.56;100.00;95531.28;5043280;28;20807;-77
2021/10/09 08:59:07;;;;;;;7.17;5.73;;;;;;;8.76;100.00;95536.97;5092635;28;20787;-77
2021/10/09 09:01:43;;;;;;;9.57;5.07;;;;;;;8.91;100.00;95535.94;5093024;28;20440;-77
2021/10/09 09:04:23;;;;;;;4.60;3.40;;;;;;;9.05;100.00;95529.78;5092747;28;20483;-77
2021/10/09 09:07:18;;;;;;;6.77;4.33;;;;;;;8.96;100.00;95534.72;5093144;28;20505;-77
2021/10/09 09:26:33;;;;;;;7.40;5.37;;;;;;;8.50;100.00;95539.56;5009664;28;20432;-77
2021/10/09 09:35:17;;;;;;;5.57;3.13;;;;;;;8.46;100.00;95529.41;4931989;29;20436;-77
2021/10/09 09:40:40;;;;;;;6.03;4.80;;;;;;;8.58;100.00;95531.19;4932599;29;20439;-76
2021/10/09 09:43:09;;;;;;;2.90;2.70;;;;;;;8.55;100.00;95532.25;4932090;29;20448;-76
2021/10/09 09:45:37;;;;;;;9.43;5.47;;;;;;;8.62;100.00;95533.50;4931819;29;20454;-76
2021/10/09 09:48:07;;;;;;;6.83;4.90;;;;;;;8.63;100.00;95529.09;4931987;29;20511;-76
2021/10/09 09:50:35;;;;;;;6.20;3.63;;;;;;;8.54;100.00;95535.78;4979654;28;20459;-76
2021/10/09 09:53:04;;;;;;;6.17;5.33;;;;;;;8.63;100.00;95539.56;4989754;28;20437;-75
2021/10/09 09:55:31;;;;;;;8.80;5.53;;;;;;;8.56;100.00;95540.91;5002938;28;20466;-76
2021/10/09 09:58:01;;;;;;;7.77;4.10;;;;;;;8.56;100.00;95541.75;5025804;28;20465;-77
2021/10/09 10:00:34;;;;;;;4.87;3.30;;;;;;;8.52;100.00;95535.06;5029382;28;20508;-77
2021/10/09 10:03:03;;;;;;;6.47;4.20;;;;;;;8.59;100.00;95538.09;5028910;28;20443;-77
2021/10/09 10:05:30;;;;;;;9.30;5.00;;;;;;;8.62;100.00;95541.34;5029059;28;20508;-77
2021/10/09 10:07:58;;;;;;;4.73;3.70;;;;;;;8.67;100.00;95536.66;5029090;28;20439;-77
2021/10/09 10:10:25;;;;;;;3.23;2.60;;;;;;;8.59;100.00;95538.09;5043600;27;20441;-77
2021/10/09 10:12:57;;;;;;;3.30;2.10;;;;;;;8.69;100.00;95539.19;5074060;28;20532;-79
2021/10/09 10:15:30;;;;;;;4.40;2.70;;;;;;;8.90;100.00;95542.94;5080006;27;20512;-77
2021/10/09 10:17:57;;;;;;;4.70;3.30;;;;;;;8.91;100.00;95542.00;5050945;28;20546;-77
2021/10/09 10:20:45;;;;;;;3.90;3.40;;;;;;;8.94;100.00;95544.41;5090187;28;20468;-77
2021/10/09 10:23:31;;;;;;;5.40;3.90;;;;;;;8.95;100.00;95547.88;5090788;28;20453;-77
2021/10/09 10:26:24;;;;;;;4.50;4.03;;;;;;;8.80;100.00;95535.84;5091082;27;20451;-77
2021/10/09 10:29:24;;;;;;;5.37;4.37;;;;;;;8.76;100.00;95537.81;5090652;27;20979;-77
2021/10/09 10:32:13;;;;;;;6.00;3.70;;;;;;;8.77;100.00;95538.66;5087912;28;20459;-76
2021/10/09 10:34:43;;;;;;;5.87;4.80;;;;;;;8.84;100.00;95532.91;5075524;27;20472;-77
2021/10/09 10:37:35;;;;;;;9.23;8.32;;;;;;;8.76;100.00;95532.59;5077909;28;20448;-77
2021/10/09 10:40:03;;;;;;;6.40;4.93;;;;;;;8.89;100.00;95535.19;5091250;27;20289;-74
2021/10/09 10:42:31;;;;;;;5.53;4.50;;;;;;;8.68;100.00;95529.66;5091401;28;20471;-79
2021/10/09 10:47:52;;;;;;;4.67;4.27;;;;;;;8.76;100.00;95537.81;5050931;28;20525;-76
2021/10/09 10:50:54;;;;;;;5.37;4.90;;;;;;;8.91;100.00;95528.09;5066082;28;20516;-77
2021/10/09 10:53:27;;;;;;;5.60;4.43;;;;;;;8.90;100.00;95532.47;5087533;27;20457;-78
2021/10/09 10:56:07;;;;;;;5.80;5.30;;;;;;;8.89;100.00;95524.72;5054842;28;20445;-81
2021/10/09 10:58:34;;;;;;;6.10;5.17;;;;;;;8.83;100.00;95533.00;5069676;28;20454;-76
2021/10/09 11:01:16;;;;;;;5.53;4.13;;;;;;;8.71;100.00;95528.63;5076503;28;20463;-76
2021/10/09 11:03:48;;;;;;;5.43;4.93;;;;;;;8.68;100.00;95527.03;5085687;28;20460;-76
2021/10/09 11:06:17;;;;;;;5.50;3.70;;;;;;;8.59;100.00;95532.88;5091639;28;20444;-82
2021/10/09 11:08:45;;;;;;;6.23;4.90;;;;;;;8.71;100.00;95533.84;5057885;28;20492;-77
2021/10/09 11:11:12;;;;;;;5.67;4.60;;;;;;;8.86;100.00;95543.25;5091010;28;20451;-82
2021/10/09 11:13:40;;;;;;;3.80;3.10;;;;;;;8.82;100.00;95536.56;5091272;28;21202;-82
2021/10/09 11:16:08;;;;;;;14.10;10.83;;;;;;;8.82;100.00;95534.78;5092918;28;20445;-75
2021/10/09 11:18:50;;;;;;;15.77;10.07;;;;;;;9.04;100.00;95531.56;5106835;28;20458;-79
2021/10/09 11:21:18;;;;;;;6.30;5.00;;;;;;;9.09;100.00;95529.44;5111336;28;20444;-78
2021/10/09 11:23:50;;;;;;;14.80;6.37;;;;;;;9.07;100.00;95527.88;5111042;28;20534;-77
2021/10/09 11:26:17;;;;;;;13.53;6.40;;;;;;;8.98;100.00;95521.50;5111234;28;20443;-78
2021/10/09 11:28:44;;;;;;;10.87;7.70;;;;;;;8.96;100.00;95518.13;5111041;28;20486;-81
2021/10/09 11:31:22;;;;;;;18.37;6.77;;;;;;;9.01;100.00;95516.06;5111432;28;20852;-77
2021/10/09 11:33:54;;;;;;;9.67;5.47;;;;;;;8.95;100.00;95513.84;5110983;28;20451;-75
2021/10/09 11:36:21;;;;;;;5.60;4.13;;;;;;;8.88;100.00;95510.81;5110704;28;20877;-74
2021/10/09 11:38:48;;;;;;;12.47;8.07;;;;;;;8.91;100.00;95513.22;5110986;28;20444;-75
2021/10/09 11:41:19;;;;;;;4.60;3.93;;;;;;;8.75;100.00;95517.00;5097962;28;20920;-75
2021/10/09 11:43:48;;;;;;;7.73;5.30;;;;;;;8.81;100.00;95509.56;5089841;28;20455;-74
2021/10/09 11:46:41;;;;;;;9.50;6.03;;;;;;;8.87;100.00;95506.53;5089684;28;20773;-75
2021/10/09 11:55:00;;;;;;;8.07;5.63;;;;;;;8.98;100.00;95518.91;5089696;28;20501;-75
2021/10/09 11:57:30;;;;;;;7.13;5.87;;;;;;;9.07;100.00;95515.63;5089934;27;20452;-75
2021/10/09 11:59:57;;;;;;;6.70;4.70;;;;;;;8.99;100.00;95517.94;5089272;28;21003;-75
2021/10/09 12:02:34;;;;;;;6.23;5.50;;;;;;;9.08;100.00;95517.31;5070209;28;20436;-76
2021/10/09 12:05:04;;;;;;;9.07;7.47;;;;;;;9.11;100.00;95516.25;5086161;28;20480;-77
2021/10/09 12:07:30;;;;;;;9.30;7.60;;;;;;;9.23;100.00;95510.16;5090218;28;20841;-76
2021/10/09 12:10:03;;;;;;;5.57;4.37;;;;;;;9.08;100.00;95512.06;5089534;28;20491;-76
2021/10/09 12:12:33;;;;;;;7.17;4.37;;;;;;;9.18;100.00;95507.88;5049229;27;20495;-77
2021/10/09 12:15:01;;;;;;;3.87;3.50;;;;;;;9.14;100.00;95511.66;5049553;28;20537;-77
2021/10/09 12:17:36;;;;;;;7.30;6.63;;;;;;;9.09;100.00;95508.50;5032957;28;20537;-76
2021/10/09 12:20:07;;;;;;;15.63;12.03;;;;;;;9.29;100.00;95515.81;5069559;28;20448;-77
2021/10/09 12:22:44;;;;;;;11.23;6.03;;;;;;;9.35;100.00;95513.72;5068499;28;20442;-77
2021/10/09 12:25:25;;;;;;;7.80;5.77;;;;;;;9.29;100.00;95517.59;5069409;28;20455;-75
2021/10/09 12:27:57;;;;;;;14.90;12.67;;;;;;;9.05;100.00;95514.91;5073531;27;20452;-79
2021/10/09 12:30:35;;;;;;;10.30;5.93;;;;;;;9.12;100.00;95513.53;5076547;27;20843;-75
2021/10/09 12:33:02;;;;;;;11.67;6.30;;;;;;;9.21;100.00;95510.25;5071187;28;20947;-76
2021/10/09 12:35:33;;;;;;;13.60;10.20;;;;;;;9.19;100.00;95513.94;5072387;27;20457;-75
2021/10/09 12:38:03;;;;;;;11.83;9.60;;;;;;;9.06;100.00;95516.56;5079217;28;20969;-75
2021/10/09 12:40:37;;;;;;;19.40;13.90;;;;;;;9.07;100.00;95520.88;5092765;27;20457;-75
2021/10/09 12:43:07;;;;;;;10.83;8.33;;;;;;;9.18;100.00;95517.50;5138996;27;20443;-74
2021/10/09 12:45:34;;;;;;;14.50;11.10;;;;;;;9.00;100.00;95524.84;5090687;28;20445;-75
2021/10/09 12:48:01;;;;;;;10.17;6.63;;;;;;;9.18;100.00;95526.19;5082801;28;20973;-82
2021/10/09 12:50:32;;;;;;;8.10;7.17;;;;;;;9.01;100.00;95531.78;5092344;28;20480;-75
2021/10/09 12:52:59;;;;;;;12.80;9.20;;;;;;;9.09;100.00;95534.69;5092325;28;20449;-75
2021/10/09 12:55:27;;;;;;;13.23;11.07;;;;;;;8.99;100.00;95536.28;5092597;28;20441;-77
2021/10/09 12:57:55;;;;;;;10.70;9.50;;;;;;;8.93;100.00;95534.88;5091827;28;20450;-74
2021/10/09 13:00:24;;;;;;;6.53;5.60;;;;;;;8.98;100.00;95540.66;5072007;28;20453;-75
2021/10/09 13:02:52;;;;;;;6.78;6.10;;;;;;;9.12;100.00;95544.13;5070386;27;20441;-76
2021/10/09 13:05:19;;;;;;;8.10;6.80;;;;;;;8.90;100.00;95542.13;5083072;28;20217;-75
2021/10/09 13:07:47;;;;;;;6.80;4.73;;;;;;;8.98;100.00;95550.31;5092290;28;20452;-75
2021/10/09 13:10:15;;;;;;;9.90;7.00;;;;;;;8.99;100.00;95546.75;5104476;27;20564;-76
2021/10/09 13:12:42;;;;;;;6.93;5.13;;;;;;;8.91;100.00;95552.47;5051118;28;20438;-76
2021/10/09 13:15:09;;;;;;;5.73;4.03;;;;;;;8.84;100.00;95555.63;5071868;28;20221;-78
2021/10/09 13:17:37;;;;;;;6.17;4.40;;;;;;;8.96;100.00;95560.88;5036703;28;20442;-77
2021/10/09 13:20:05;;;;;;;7.10;6.40;;;;;;;8.92;100.00;95561.16;5054065;27;20536;-77
2021/10/09 13:22:32;;;;;;;5.90;5.30;;;;;;;8.94;100.00;95556.66;5036845;28;20453;-77
2021/10/09 13:25:00;;;;;;;5.17;4.33;;;;;;;9.13;100.00;95553.63;5084911;28;20456;-77
2021/10/09 13:27:27;;;;;;;5.40;4.30;;;;;;;9.20;100.00;95553.09;5091883;28;20454;-79
2021/10/09 13:29:54;;;;;;;4.97;3.83;;;;;;;9.13;100.00;95561.50;5091982;28;20488;-77
2021/10/09 13:32:21;;;;;;;6.93;4.20;;;;;;;9.13;100.00;95554.47;5091630;28;20491;-77